Time;durP1;ratioP1;P1;durP2;ratioP2;P2;SDS_P1;SDS_P2;PMS_P1;PMS_P2;Temp;Humidity;BMP_temperature;BMP_pressure;BME280_temperature;BME280_humidity;BME280_pressure;Samples;Min_cycle;Max_cycle;Signal;HPM_P1;HPM_P2
2023/03/26 00:01:06;;;;;;;;;;;;;;;;;;4911944;29;20309;-81
2023/03/26 00:03:36;;;;;;;;;;;;;;;;;;4919980;29;19930;-81
2023/03/26 00:06:04;;;;;;;;;;;;;;;;;;4913671;29;19923;-81
2023/03/26 00:08:31;;;;;;;;;;;;;;;;;;4915115;29;19923;-81
2023/03/26 00:11:01;;;;;;;;;;;;;;;;;;4934833;29;19930;-81
2023/03/26 00:13:31;;;;;;;;;;;;;;;;;;4929584;29;20408;-81
2023/03/26 00:16:00;;;;;;;;;;;;;;;;;;4927164;29;20404;-81
2023/03/26 00:18:30;;;;;;;;;;;;;;;;;;4915497;29;19923;-81
2023/03/26 00:21:01;;;;;;;;;;;;;;;;;;4896526;29;20366;-81
2023/03/26 00:23:31;;;;;;;;;;;;;;;;;;4908411;29;19924;-82
2023/03/26 00:26:01;;;;;;;;;;;;;;;;;;4911467;29;20117;-81
2023/03/26 00:28:30;;;;;;;;;;;;;;;;;;4914584;29;19923;-81
2023/03/26 00:30:58;;;;;;;;;;;;;;;;;;4940131;29;19931;-81
2023/03/26 00:33:25;;;;;;;;;;;;;;;;;;4912668;29;19927;-81
2023/03/26 00:35:57;;;;;;;;;;;;;;;;;;4921313;29;19923;-81
2023/03/26 00:38:26;;;;;;;;;;;;;;;;;;4911732;29;19922;-81
2023/03/26 00:40:53;;;;;;;;;;;;;;;;;;4934335;29;19938;-81
2023/03/26 00:43:20;;;;;;;;;;;;;;;;;;4918888;29;19923;-81
2023/03/26 00:45:48;;;;;;;;;;;;;;;;;;4925816;29;20235;-81
2023/03/26 00:48:15;;;;;;;;;;;;;;;;;;4914854;29;20329;-81
2023/03/26 00:50:43;;;;;;;;;;;;;;;;;;4926469;29;19927;-81
2023/03/26 00:53:12;;;;;;;;;;;;;;;;;;4903050;29;19927;-81
2023/03/26 00:55:41;;;;;;;;;;;;;;;;;;4909418;29;20294;-81
2023/03/26 00:58:11;;;;;;;;;;;;;;;;;;4911846;29;19923;-81
2023/03/26 01:00:39;;;;;;;;;;;;;;;;;;4912773;29;19930;-81
2023/03/26 01:03:06;;;;;;;;;;;;;;;;;;4896388;29;19923;-81
2023/03/26 01:05:54;;;;;;;;;;;;;;;;;;4937622;29;19934;-81
2023/03/26 01:08:25;;;;;;;;;;;;;;;;;;4914265;29;20400;-81
2023/03/26 01:11:02;;;;;;;;;;;;;;;;;;4921369;29;19923;-81
2023/03/26 01:13:30;;;;;;;;;;;;;;;;;;4933128;29;20279;-81
2023/03/26 01:15:57;;;;;;;;;;;;;;;;;;4929047;29;19938;-81
2023/03/26 01:18:25;;;;;;;;;;;;;;;;;;4915678;29;19923;-81
2023/03/26 01:20:57;;;;;;;;;;;;;;;;;;4930506;29;19930;-81
2023/03/26 01:23:25;;;;;;;;;;;;;;;;;;4912912;29;19996;-81
2023/03/26 01:25:56;;;;;;;;;;;;;;;;;;4914275;29;19929;-81
2023/03/26 01:28:24;;;;;;;;;;;;;;;;;;4915508;29;19930;-81
2023/03/26 01:30:57;;;;;;;;;;;;;;;;;;4931623;29;19930;-81
2023/03/26 01:33:28;;;;;;;;;;;;;;;;;;4926788;29;20049;-81
2023/03/26 01:35:57;;;;;;;;;;;;;;;;;;4928910;29;19923;-81
2023/03/26 01:38:27;;;;;;;;;;;;;;;;;;4932018;29;19923;-81
2023/03/26 01:40:57;;;;;;;;;;;;;;;;;;4918219;29;19923;-81
2023/03/26 01:43:28;;;;;;;;;;;;;;;;;;4916864;29;19946;-80
2023/03/26 01:45:56;;;;;;;;;;;;;;;;;;4910386;29;19923;-80
2023/03/26 01:48:28;;;;;;;;;;;;;;;;;;4911340;29;19927;-81
2023/03/26 01:50:57;;;;;;;;;;;;;;;;;;4913310;29;19923;-80
2023/03/26 01:53:26;;;;;;;;;;;;;;;;;;4915362;29;19930;-81
2023/03/26 01:55:56;;;;;;;;;;;;;;;;;;4928884;29;19923;-81
2023/03/26 01:58:26;;;;;;;;;;;;;;;;;;4912627;29;19923;-80
2023/03/26 02:00:55;;;;;;;;;;;;;;;;;;4912435;29;19930;-81
2023/03/26 02:03:23;;;;;;;;;;;;;;;;;;4915581;29;19934;-81
2023/03/26 02:05:52;;;;;;;;;;;;;;;;;;4913897;29;19930;-80
2023/03/26 02:08:21;;;;;;;;;;;;;;;;;;4920618;29;19923;-81
2023/03/26 02:10:50;;;;;;;;;;;;;;;;;;4932134;29;19923;-81
2023/03/26 02:13:21;;;;;;;;;;;;;;;;;;4898589;29;19923;-80
2023/03/26 02:15:57;;;;;;;;;;;;;;;;;;4929116;29;19923;-80
2023/03/26 02:18:24;;;;;;;;;;;;;;;;;;4930457;29;19923;-80
2023/03/26 02:20:52;;;;;;;;;;;;;;;;;;4927140;29;19927;-80
2023/03/26 02:23:20;;;;;;;;;;;;;;;;;;4938340;29;20308;-80
2023/03/26 02:25:51;;;;;;;;;;;;;;;;;;4920206;29;19934;-81
2023/03/26 02:28:18;;;;;;;;;;;;;;;;;;4925250;29;20275;-80
2023/03/26 02:30:47;;;;;;;;;;;;;;;;;;4909032;29;19923;-80
2023/03/26 02:33:16;;;;;;;;;;;;;;;;;;4928593;29;19922;-80
2023/03/26 02:35:44;;;;;;;;;;;;;;;;;;4928803;29;20320;-81
2023/03/26 02:38:13;;;;;;;;;;;;;;;;;;4929720;29;19923;-81
2023/03/26 02:40:42;;;;;;;;;;;;;;;;;;4897104;29;19951;-81
2023/03/26 02:43:12;;;;;;;;;;;;;;;;;;4929152;29;19938;-81
2023/03/26 02:45:40;;;;;;;;;;;;;;;;;;4929155;29;20386;-80
2023/03/26 02:48:08;;;;;;;;;;;;;;;;;;4910685;29;19938;-80
2023/03/26 02:50:53;;;;;;;;;;;;;;;;;;4923052;29;20931;-80
2023/03/26 02:53:28;;;;;;;;;;;;;;;;;;4912157;29;20389;-81
2023/03/26 02:56:00;;;;;;;;;;;;;;;;;;4929175;29;19930;-80
2023/03/26 02:58:34;;;;;;;;;;;;;;;;;;4928171;29;19923;-80
2023/03/26 03:01:01;;;;;;;;;;;;;;;;;;4911886;29;19923;-80
2023/03/26 03:03:37;;;;;;;;;;;;;;;;;;4925979;29;19930;-80
2023/03/26 03:06:04;;;;;;;;;;;;;;;;;;4930672;29;19938;-80
2023/03/26 03:08:37;;;;;;;;;;;;;;;;;;4927144;29;19930;-81
2023/03/26 03:11:17;;;;;;;;;;;;;;;;;;4918791;29;19922;-80
2023/03/26 03:13:47;;;;;;;;;;;;;;;;;;4913315;29;20294;-80
2023/03/26 03:16:21;;;;;;;;;;;;;;;;;;4915663;29;19923;-80
2023/03/26 03:18:53;;;;;;;;;;;;;;;;;;4913537;29;19923;-80
2023/03/26 03:21:21;;;;;;;;;;;;;;;;;;4913716;29;19923;-79
2023/03/26 03:23:48;;;;;;;;;;;;;;;;;;4916353;29;19913;-80
2023/03/26 03:26:16;;;;;;;;;;;;;;;;;;4951386;29;19934;-79
2023/03/26 03:28:52;;;;;;;;;;;;;;;;;;4927204;29;19938;-80
2023/03/26 03:31:20;;;;;;;;;;;;;;;;;;4919896;29;19945;-80
2023/03/26 03:33:51;;;;;;;;;;;;;;;;;;4911387;29;19927;-80
2023/03/26 03:36:20;;;;;;;;;;;;;;;;;;4921247;29;19924;-80
2023/03/26 03:38:50;;;;;;;;;;;;;;;;;;4914146;29;19963;-80
2023/03/26 03:41:21;;;;;;;;;;;;;;;;;;4916628;29;19930;-80
2023/03/26 03:43:50;;;;;;;;;;;;;;;;;;4927451;29;19931;-81
2023/03/26 03:46:24;;;;;;;;;;;;;;;;;;4915625;29;20265;-80
2023/03/26 03:48:53;;;;;;;;;;;;;;;;;;4914034;29;19931;-80
2023/03/26 03:51:28;;;;;;;;;;;;;;;;;;4932433;29;20377;-81
2023/03/26 03:54:07;;;;;;;;;;;;;;;;;;4914847;29;19930;-80
2023/03/26 03:56:54;;;;;;;;;;;;;;;;;;4910936;29;20056;-80
2023/03/26 03:59:41;;;;;;;;;;;;;;;;;;4929693;29;19930;-80
2023/03/26 04:02:10;;;;;;;;;;;;;;;;;;4929594;29;20293;-80
2023/03/26 04:04:49;;;;;;;;;;;;;;;;;;4920038;29;19922;-80
2023/03/26 04:07:21;;;;;;;;;;;;;;;;;;4914043;29;19923;-80
2023/03/26 04:10:12;;;;;;;;;;;;;;;;;;4916499;29;19923;-80
2023/03/26 04:13:02;;;;;;;;;;;;;;;;;;4909638;29;20320;-80
2023/03/26 04:15:52;;;;;;;;;;;;;;;;;;4911596;29;19923;-80
2023/03/26 04:18:21;;;;;;;;;;;;;;;;;;4928447;29;19923;-81
2023/03/26 04:20:49;;;;;;;;;;;;;;;;;;4935470;29;19927;-80
2023/03/26 04:23:25;;;;;;;;;;;;;;;;;;4927835;29;19927;-80
2023/03/26 04:26:02;;;;;;;;;;;;;;;;;;4933944;29;19923;-80
2023/03/26 04:28:45;;;;;;;;;;;;;;;;;;4897323;29;19927;-81
2023/03/26 04:31:27;;;;;;;;;;;;;;;;;;4926930;29;19922;-81
2023/03/26 04:34:04;;;;;;;;;;;;;;;;;;4912919;29;19923;-80
2023/03/26 04:36:34;;;;;;;;;;;;;;;;;;4931431;29;19924;-80
2023/03/26 04:39:03;;;;;;;;;;;;;;;;;;4917879;29;19926;-81
2023/03/26 04:41:50;;;;;;;;;;;;;;;;;;4962010;23;19938;-79
2023/03/26 04:44:21;;;;;;;;;;;;;;;;;;4934496;28;19923;-80
2023/03/26 04:47:01;;;;;;;;;;;;;;;;;;4946844;29;19930;-80
2023/03/26 04:49:38;;;;;;;;;;;;;;;;;;4955187;29;19938;-79
2023/03/26 04:52:06;;;;;;;;;;;;;;;;;;4955208;29;19933;-79
2023/03/26 04:54:59;;;;;;;;;;;;;;;;;;4945671;28;19929;-79
2023/03/26 04:57:29;;;;;;;;;;;;;;;;;;4955859;28;19929;-79
2023/03/26 05:00:13;;;;;;;;;;;;;;;;;;4955455;29;20377;-80
2023/03/26 05:02:41;;;;;;;;;;;;;;;;;;4938088;29;19945;-79
2023/03/26 05:05:09;;;;;;;;;;;;;;;;;;4955608;28;19929;-79
2023/03/26 05:07:40;;;;;;;;;;;;;;;;;;4951781;28;19933;-79
2023/03/26 05:10:15;;;;;;;;;;;;;;;;;;4963522;28;20328;-80
2023/03/26 05:13:00;;;;;;;;;;;;;;;;;;4954004;29;19927;-79
2023/03/26 05:15:31;;;;;;;;;;;;;;;;;;4957489;28;20394;-79
2023/03/26 05:17:57;;;;;;;;;;;;;;;;;;4950395;29;19922;-80
2023/03/26 05:20:32;;;;;;;;;;;;;;;;;;4935516;29;20344;-79
2023/03/26 05:23:00;;;;;;;;;;;;;;;;;;4952765;29;19930;-79
2023/03/26 05:25:34;;;;;;;;;;;;;;;;;;4966304;28;19923;-80
2023/03/26 05:28:02;;;;;;;;;;;;;;;;;;4950913;28;19934;-79
2023/03/26 05:30:43;;;;;;;;;;;;;;;;;;4952742;28;20004;-79
2023/03/26 05:33:10;;;;;;;;;;;;;;;;;;4935580;29;20120;-79
2023/03/26 05:35:45;;;;;;;;;;;;;;;;;;4961462;28;19933;-80
2023/03/26 05:38:14;;;;;;;;;;;;;;;;;;4956073;28;20296;-79
2023/03/26 05:40:41;;;;;;;;;;;;;;;;;;4955333;28;19926;-79
2023/03/26 05:43:09;;;;;;;;;;;;;;;;;;4952202;29;19926;-79
2023/03/26 05:45:36;;;;;;;;;;;;;;;;;;4951985;28;19929;-79
2023/03/26 05:48:19;;;;;;;;;;;;;;;;;;4951032;29;19946;-79
2023/03/26 05:50:47;;;;;;;;;;;;;;;;;;4950285;28;19928;-80
2023/03/26 05:53:18;;;;;;;;;;;;;;;;;;4948042;29;19934;-79
2023/03/26 05:55:49;;;;;;;;;;;;;;;;;;4960267;28;19922;-79
2023/03/26 05:58:35;;;;;;;;;;;;;;;;;;4954870;28;19935;-79
2023/03/26 06:01:30;;;;;;;;;;;;;;;;;;4952031;29;20046;-79
2023/03/26 06:04:30;;;;;;;;;;;;;;;;;;4937014;28;19933;-79
2023/03/26 06:07:20;;;;;;;;;;;;;;;;;;4958602;28;19933;-79
2023/03/26 06:10:03;;;;;;;;;;;;;;;;;;4948728;28;19934;-79
2023/03/26 06:12:30;;;;;;;;;;;;;;;;;;4953127;28;19922;-79
2023/03/26 06:15:00;;;;;;;;;;;;;;;;;;4953730;28;20309;-79
2023/03/26 06:17:42;;;;;;;;;;;;;;;;;;4950531;28;19923;-79
2023/03/26 06:20:36;;;;;;;;;;;;;;;;;;4956971;28;19929;-79
2023/03/26 06:23:12;;;;;;;;;;;;;;;;;;4942620;28;19929;-79
2023/03/26 06:25:56;;;;;;;;;;;;;;;;;;4959590;28;20288;-79
2023/03/26 06:28:43;;;;;;;;;;;;;;;;;;4956422;28;19923;-79
2023/03/26 06:31:29;;;;;;;;;;;;;;;;;;4945563;28;20035;-80
2023/03/26 06:34:14;;;;;;;;;;;;;;;;;;4950885;28;19938;-80
2023/03/26 06:36:41;;;;;;;;;;;;;;;;;;4931584;28;20381;-80
2023/03/26 06:39:08;;;;;;;;;;;;;;;;;;4934748;29;19927;-80
2023/03/26 06:41:40;;;;;;;;;;;;;;;;;;4950328;28;19922;-80
2023/03/26 06:44:36;;;;;;;;;;;;;;;;;;4970806;28;19933;-79
2023/03/26 06:47:22;;;;;;;;;;;;;;;;;;4952437;28;19933;-79
2023/03/26 06:50:09;;;;;;;;;;;;;;;;;;4948932;28;19922;-79
2023/03/26 06:52:41;;;;;;;;;;;;;;;;;;4955408;28;19922;-79
2023/03/26 06:55:30;;;;;;;;;;;;;;;;;;4938775;29;20427;-80
2023/03/26 06:58:15;;;;;;;;;;;;;;;;;;4953273;28;19929;-80
2023/03/26 07:01:01;;;;;;;;;;;;;;;;;;4952370;28;20293;-80
2023/03/26 07:03:49;;;;;;;;;;;;;;;;;;4953784;28;19922;-80
2023/03/26 07:06:39;;;;;;;;;;;;;;;;;;4951142;28;19922;-81
2023/03/26 07:09:29;;;;;;;;;;;;;;;;;;4950562;28;20394;-80
2023/03/26 07:12:04;;;;;;;;;;;;;;;;;;4950712;28;19923;-79
2023/03/26 07:14:51;;;;;;;;;;;;;;;;;;4959122;28;19933;-80
2023/03/26 07:17:41;;;;;;;;;;;;;;;;;;4950862;28;19922;-79
2023/03/26 07:20:27;;;;;;;;;;;;;;;;;;4950946;28;19933;-80
2023/03/26 07:22:54;;;;;;;;;;;;;;;;;;4937649;28;19922;-80
2023/03/26 07:25:56;;;;;;;;;;;;;;;;;;4949472;28;19923;-80
2023/03/26 07:28:38;;;;;;;;;;;;;;;;;;4949255;28;19933;-80
2023/03/26 07:31:20;;;;;;;;;;;;;;;;;;4966702;28;19934;-80
2023/03/26 07:33:56;;;;;;;;;;;;;;;;;;4949912;28;19945;-80
2023/03/26 07:36:32;;;;;;;;;;;;;;;;;;4955887;28;19921;-80
2023/03/26 07:39:22;;;;;;;;;;;;;;;;;;4952718;28;19929;-79
2023/03/26 07:41:59;;;;;;;;;;;;;;;;;;4952770;28;20411;-79
2023/03/26 07:44:47;;;;;;;;;;;;;;;;;;4951994;28;19922;-79
2023/03/26 07:47:43;;;;;;;;;;;;;;;;;;4942527;28;19930;-79
2023/03/26 07:50:15;;;;;;;;;;;;;;;;;;4950388;28;19922;-80
2023/03/26 07:53:01;;;;;;;;;;;;;;;;;;4965973;28;19929;-80
2023/03/26 07:55:48;;;;;;;;;;;;;;;;;;4947982;28;20169;-80
2023/03/26 07:58:42;;;;;;;;;;;;;;;;;;4950049;28;19925;-80
2023/03/26 08:01:24;;;;;;;;;;;;;;;;;;4950331;28;19927;-80
2023/03/26 08:04:04;;;;;;;;;;;;;;;;;;4953878;28;19933;-80
2023/03/26 08:06:59;;;;;;;;;;;;;;;;;;4954085;28;19938;-80
2023/03/26 08:09:49;;;;;;;;;;;;;;;;;;4958491;28;20295;-80
2023/03/26 08:12:28;;;;;;;;;;;;;;;;;;4963437;28;19926;-80
2023/03/26 08:14:56;;;;;;;;;;;;;;;;;;4951278;28;19922;-80
2023/03/26 08:17:24;;;;;;;;;;;;;;;;;;4950848;28;19926;-80
2023/03/26 08:19:57;;;;;;;;;;;;;;;;;;4947679;28;19923;-80
2023/03/26 08:22:26;;;;;;;;;;;;;;;;;;4951200;28;19923;-80
2023/03/26 08:25:05;;;;;;;;;;;;;;;;;;4935484;29;19929;-80
2023/03/26 08:27:37;;;;;;;;;;;;;;;;;;4951403;28;19941;-80
2023/03/26 08:30:06;;;;;;;;;;;;;;;;;;4950299;28;19922;-80
2023/03/26 08:32:33;;;;;;;;;;;;;;;;;;4937986;29;19923;-79
2023/03/26 08:35:03;;;;;;;;;;;;;;;;;;4952040;28;19949;-80
2023/03/26 08:37:30;;;;;;;;;;;;;;;;;;4952833;28;19922;-80
2023/03/26 08:39:57;;;;;;;;;;;;;;;;;;4942777;28;19926;-81
2023/03/26 08:42:30;;;;;;;;;;;;;;;;;;4953062;29;19932;-81
2023/03/26 08:45:05;;;;;;;;;;;;;;;;;;4968631;28;19930;-81
2023/03/26 08:47:50;;;;;;;;;;;;;;;;;;4953563;28;19929;-81
2023/03/26 08:50:23;;;;;;;;;;;;;;;;;;4925348;28;19922;-82
2023/03/26 08:53:00;;;;;;;;;;;;;;;;;;4964010;28;19933;-82
2023/03/26 08:55:40;;;;;;;;;;;;;;;;;;4952168;29;20377;-82
2023/03/26 08:58:27;;;;;;;;;;;;;;;;;;4955209;28;19929;-82
2023/03/26 09:01:01;;;;;;;;;;;;;;;;;;4935734;29;20329;-82
2023/03/26 09:03:52;;;;;;;;;;;;;;;;;;4933669;29;19922;-82
2023/03/26 09:06:34;;;;;;;;;;;;;;;;;;4951361;28;19930;-82
2023/03/26 09:09:09;;;;;;;;;;;;;;;;;;4960302;28;19923;-82
2023/03/26 09:11:55;;;;;;;;;;;;;;;;;;4970768;28;19930;-82
2023/03/26 09:14:41;;;;;;;;;;;;;;;;;;4947637;28;19928;-82
2023/03/26 09:17:19;;;;;;;;;;;;;;;;;;4966931;28;19934;-82
2023/03/26 09:19:54;;;;;;;;;;;;;;;;;;4965019;28;19929;-82
2023/03/26 09:22:37;;;;;;;;;;;;;;;;;;4954700;28;19923;-82
2023/03/26 09:25:14;;;;;;;;;;;;;;;;;;4967019;28;19923;-82
2023/03/26 09:27:48;;;;;;;;;;;;;;;;;;4971045;28;19922;-82
2023/03/26 09:30:35;;;;;;;;;;;;;;;;;;4959356;28;19926;-82
2023/03/26 09:33:21;;;;;;;;;;;;;;;;;;4950948;28;19923;-82
2023/03/26 09:35:52;;;;;;;;;;;;;;;;;;4955751;28;19949;-82
2023/03/26 09:38:26;;;;;;;;;;;;;;;;;;4951907;28;20384;-82
2023/03/26 09:40:55;;;;;;;;;;;;;;;;;;4957555;28;19922;-82
2023/03/26 09:43:42;;;;;;;;;;;;;;;;;;4951915;28;20396;-82
2023/03/26 09:46:13;;;;;;;;;;;;;;;;;;4964759;28;19922;-82
2023/03/26 09:48:59;;;;;;;;;;;;;;;;;;4953186;29;19970;-82
2023/03/26 09:51:38;;;;;;;;;;;;;;;;;;4956262;28;19922;-82
2023/03/26 09:54:27;;;;;;;;;;;;;;;;;;4954481;28;20304;-83
2023/03/26 09:56:57;;;;;;;;;;;;;;;;;;4939428;28;19922;-83
2023/03/26 09:59:48;;;;;;;;;;;;;;;;;;4954017;28;19935;-82
2023/03/26 10:02:22;;;;;;;;;;;;;;;;;;4939868;28;19928;-83
2023/03/26 10:05:03;;;;;;;;;;;;;;;;;;4956814;28;19922;-83
2023/03/26 10:07:38;;;;;;;;;;;;;;;;;;4953287;28;19930;-83
2023/03/26 10:10:07;;;;;;;;;;;;;;;;;;4954575;28;20308;-82
2023/03/26 10:12:37;;;;;;;;;;;;;;;;;;4952417;29;19922;-82
2023/03/26 10:15:11;;;;;;;;;;;;;;;;;;4951329;28;19944;-82
2023/03/26 10:17:41;;;;;;;;;;;;;;;;;;4951240;28;19927;-82
2023/03/26 10:20:18;;;;;;;;;;;;;;;;;;4936248;29;19923;-82
2023/03/26 10:22:50;;;;;;;;;;;;;;;;;;4941219;28;20296;-83
2023/03/26 10:25:32;;;;;;;;;;;;;;;;;;4942076;28;20399;-83
2023/03/26 10:28:05;;;;;;;;;;;;;;;;;;4952106;28;20396;-83
2023/03/26 10:30:48;;;;;;;;;;;;;;;;;;4942832;28;19937;-83
2023/03/26 10:33:19;;;;;;;;;;;;;;;;;;4931034;28;20368;-83
2023/03/26 10:35:51;;;;;;;;;;;;;;;;;;4934766;28;20384;-83
2023/03/26 10:38:21;;;;;;;;;;;;;;;;;;4953136;28;19930;-83
2023/03/26 10:41:03;;;;;;;;;;;;;;;;;;4942188;28;20324;-82
2023/03/26 10:43:45;;;;;;;;;;;;;;;;;;4961563;23;19938;-82
2023/03/26 10:46:23;;;;;;;;;;;;;;;;;;4955879;28;20406;-82
2023/03/26 10:48:59;;;;;;;;;;;;;;;;;;4966096;28;20434;-82
2023/03/26 10:51:35;;;;;;;;;;;;;;;;;;4966520;28;19937;-82
2023/03/26 10:54:03;;;;;;;;;;;;;;;;;;4942386;29;19926;-83
2023/03/26 10:56:32;;;;;;;;;;;;;;;;;;4931838;29;19933;-83
2023/03/26 10:59:00;;;;;;;;;;;;;;;;;;4939748;29;19926;-83
2023/03/26 11:01:32;;;;;;;;;;;;;;;;;;4952713;29;19929;-83
2023/03/26 11:04:00;;;;;;;;;;;;;;;;;;4939147;29;20392;-82
2023/03/26 11:06:30;;;;;;;;;;;;;;;;;;4946965;29;20384;-83
2023/03/26 11:09:02;;;;;;;;;;;;;;;;;;4947782;29;19945;-82
2023/03/26 11:11:30;;;;;;;;;;;;;;;;;;4932397;28;19930;-82
2023/03/26 11:14:00;;;;;;;;;;;;;;;;;;4937360;29;20432;-82
2023/03/26 11:16:31;;;;;;;;;;;;;;;;;;4949155;29;20392;-83
2023/03/26 11:18:59;;;;;;;;;;;;;;;;;;4945509;29;19926;-83
2023/03/26 11:21:26;;;;;;;;;;;;;;;;;;4941008;29;19938;-83
2023/03/26 11:24:00;;;;;;;;;;;;;;;;;;4946908;29;19931;-83
2023/03/26 11:26:30;;;;;;;;;;;;;;;;;;4942313;29;20423;-83
2023/03/26 11:29:12;;;;;;;;;;;;;;;;;;4948856;29;19930;-82
2023/03/26 11:31:43;;;;;;;;;;;;;;;;;;4944200;29;19926;-83
2023/03/26 11:34:11;;;;;;;;;;;;;;;;;;4949577;28;20293;-83
2023/03/26 11:36:42;;;;;;;;;;;;;;;;;;4949720;29;19945;-83
2023/03/26 11:39:12;;;;;;;;;;;;;;;;;;4950750;29;20403;-83
2023/03/26 11:41:42;;;;;;;;;;;;;;;;;;4948142;29;19926;-83
2023/03/26 11:44:25;;;;;;;;;;;;;;;;;;4945301;28;19930;-83
2023/03/26 11:46:57;;;;;;;;;;;;;;;;;;4936008;29;19922;-83
2023/03/26 11:49:25;;;;;;;;;;;;;;;;;;4933730;29;19929;-83
2023/03/26 11:51:53;;;;;;;;;;;;;;;;;;4947016;28;20213;-83
2023/03/26 11:54:21;;;;;;;;;;;;;;;;;;4946100;29;19934;-83
2023/03/26 11:56:53;;;;;;;;;;;;;;;;;;4930304;29;19922;-83
2023/03/26 11:59:23;;;;;;;;;;;;;;;;;;4948507;28;19922;-83
2023/03/26 12:01:55;;;;;;;;;;;;;;;;;;4933709;29;19922;-82
2023/03/26 12:04:26;;;;;;;;;;;;;;;;;;4944385;29;19929;-82
2023/03/26 12:06:58;;;;;;;;;;;;;;;;;;4946050;28;19930;-83
2023/03/26 12:09:25;;;;;;;;;;;;;;;;;;4929128;28;20247;-82
2023/03/26 12:11:54;;;;;;;;;;;;;;;;;;4916440;29;19923;-82
2023/03/26 12:14:22;;;;;;;;;;;;;;;;;;4949094;29;19938;-82
2023/03/26 12:17:01;;;;;;;;;;;;;;;;;;4932638;29;19923;-82
2023/03/26 12:19:35;;;;;;;;;;;;;;;;;;4930691;28;20308;-82
2023/03/26 12:22:02;;;;;;;;;;;;;;;;;;4952596;28;19934;-82
2023/03/26 12:24:32;;;;;;;;;;;;;;;;;;4944967;28;19922;-82
2023/03/26 12:27:00;;;;;;;;;;;;;;;;;;4952184;28;19929;-83
2023/03/26 12:29:28;;;;;;;;;;;;;;;;;;4946734;28;19922;-83
2023/03/26 12:31:56;;;;;;;;;;;;;;;;;;4944359;29;20381;-83
2023/03/26 12:34:33;;;;;;;;;;;;;;;;;;4935695;29;19934;-83
2023/03/26 12:37:03;;;;;;;;;;;;;;;;;;4945291;29;19934;-84
2023/03/26 12:39:38;;;;;;;;;;;;;;;;;;4929237;28;20297;-83
2023/03/26 12:42:15;;;;;;;;;;;;;;;;;;4946950;29;19923;-83
2023/03/26 12:44:46;;;;;;;;;;;;;;;;;;4944568;28;20395;-83
2023/03/26 12:47:15;;;;;;;;;;;;;;;;;;4946712;28;19934;-82
2023/03/26 12:49:43;;;;;;;;;;;;;;;;;;4927472;29;19930;-86
2023/03/26 12:52:25;;;;;;;;;;;;;;;;;;4949026;29;20423;-85
2023/03/26 12:54:53;;;;;;;;;;;;;;;;;;4928928;29;19923;-86
2023/03/26 12:57:21;;;;;;;;;;;;;;;;;;4948514;28;19933;-86
2023/03/26 12:59:50;;;;;;;;;;;;;;;;;;4928450;29;19927;-85
2023/03/26 13:02:31;;;;;;;;;;;;;;;;;;4947865;29;19926;-86
2023/03/26 13:05:04;;;;;;;;;;;;;;;;;;4950156;29;19933;-86
2023/03/26 13:07:33;;;;;;;;;;;;;;;;;;4952103;29;19922;-85
2023/03/26 13:10:22;;;;;;;;;;;;;;;;;;4951070;29;20415;-86
2023/03/26 13:12:50;;;;;;;;;;;;;;;;;;4924682;29;19927;-86
2023/03/26 13:15:20;;;;;;;;;;;;;;;;;;4952103;29;19938;-85
2023/03/26 13:17:52;;;;;;;;;;;;;;;;;;4945485;29;19930;-85
2023/03/26 13:20:24;;;;;;;;;;;;;;;;;;4931516;29;19930;-86
2023/03/26 13:22:52;;;;;;;;;;;;;;;;;;4949135;29;20384;-86
2023/03/26 13:25:23;;;;;;;;;;;;;;;;;;4931511;29;20336;-86
2023/03/26 13:27:57;;;;;;;;;;;;;;;;;;4949037;28;19922;-86
2023/03/26 13:30:26;;;;;;;;;;;;;;;;;;4942052;29;20377;-86
2023/03/26 13:33:03;;;;;;;;;;;;;;;;;;4932794;29;19922;-86
2023/03/26 13:35:35;;;;;;;;;;;;;;;;;;4946297;29;19922;-85
2023/03/26 13:38:04;;;;;;;;;;;;;;;;;;4949740;29;20372;-86
2023/03/26 13:40:36;;;;;;;;;;;;;;;;;;4932250;29;19946;-86
2023/03/26 13:43:08;;;;;;;;;;;;;;;;;;4950351;29;20008;-86
2023/03/26 13:45:40;;;;;;;;;;;;;;;;;;4952279;29;19930;-86
2023/03/26 13:48:11;;;;;;;;;;;;;;;;;;4941712;29;19922;-86
2023/03/26 13:50:40;;;;;;;;;;;;;;;;;;4946859;29;19923;-85
2023/03/26 13:53:08;;;;;;;;;;;;;;;;;;4944937;29;19923;-86
2023/03/26 13:55:36;;;;;;;;;;;;;;;;;;4950832;29;19930;-86
2023/03/26 13:58:03;;;;;;;;;;;;;;;;;;4926637;29;19923;-86
2023/03/26 14:00:32;;;;;;;;;;;;;;;;;;4947607;29;20364;-85
2023/03/26 14:03:01;;;;;;;;;;;;;;;;;;4946862;29;20732;-85
2023/03/26 14:05:30;;;;;;;;;;;;;;;;;;4934796;29;19929;-85
2023/03/26 14:08:00;;;;;;;;;;;;;;;;;;4948249;29;19923;-85
2023/03/26 14:10:29;;;;;;;;;;;;;;;;;;4940083;29;20324;-85
2023/03/26 14:12:56;;;;;;;;;;;;;;;;;;4948648;29;20416;-85
2023/03/26 14:15:24;;;;;;;;;;;;;;;;;;4947733;29;19922;-85
2023/03/26 14:17:55;;;;;;;;;;;;;;;;;;4950419;29;19945;-85
2023/03/26 14:20:38;;;;;;;;;;;;;;;;;;4947982;29;20308;-85
2023/03/26 14:23:19;;;;;;;;;;;;;;;;;;4943674;29;19926;-85
2023/03/26 14:25:54;;;;;;;;;;;;;;;;;;4950503;29;19923;-84
2023/03/26 14:28:48;;;;;;;;;;;;;;;;;;4949287;29;20411;-84
2023/03/26 14:31:18;;;;;;;;;;;;;;;;;;4951600;29;19929;-84
2023/03/26 14:34:01;;;;;;;;;;;;;;;;;;4949012;29;19923;-84
2023/03/26 14:36:37;;;;;;;;;;;;;;;;;;4947964;29;20111;-85
2023/03/26 14:39:15;;;;;;;;;;;;;;;;;;4947588;29;20623;-84
2023/03/26 14:41:45;;;;;;;;;;;;;;;;;;4950113;29;19938;-85
2023/03/26 14:44:27;;;;;;;;;;;;;;;;;;4951359;29;19929;-84
2023/03/26 14:47:01;;;;;;;;;;;;;;;;;;4952592;29;19931;-84
2023/03/26 14:49:50;;;;;;;;;;;;;;;;;;4940071;28;19930;-86
2023/03/26 14:52:20;;;;;;;;;;;;;;;;;;4929729;29;19922;-85
2023/03/26 14:54:52;;;;;;;;;;;;;;;;;;4944082;28;19943;-85
2023/03/26 14:57:37;;;;;;;;;;;;;;;;;;4949301;28;19923;-85
2023/03/26 15:00:24;;;;;;;;;;;;;;;;;;4948321;29;19922;-85
2023/03/26 15:02:59;;;;;;;;;;;;;;;;;;4946940;29;19933;-85
2023/03/26 15:05:32;;;;;;;;;;;;;;;;;;4942347;29;20301;-85
2023/03/26 15:08:13;;;;;;;;;;;;;;;;;;4926912;29;19926;-85
2023/03/26 15:10:52;;;;;;;;;;;;;;;;;;4940364;29;20110;-85
2023/03/26 15:13:33;;;;;;;;;;;;;;;;;;4951091;29;19937;-85
2023/03/26 15:16:12;;;;;;;;;;;;;;;;;;4952053;29;20372;-85
2023/03/26 15:18:47;;;;;;;;;;;;;;;;;;4943957;29;19930;-85
2023/03/26 15:21:33;;;;;;;;;;;;;;;;;;4951817;29;19922;-85
2023/03/26 15:24:19;;;;;;;;;;;;;;;;;;4945509;29;19945;-85
2023/03/26 15:27:04;;;;;;;;;;;;;;;;;;4948343;29;19937;-85
2023/03/26 15:29:42;;;;;;;;;;;;;;;;;;4941393;29;19923;-84
2023/03/26 15:32:16;;;;;;;;;;;;;;;;;;4931316;29;20355;-84
2023/03/26 15:34:57;;;;;;;;;;;;;;;;;;4912537;29;19927;-84
2023/03/26 15:37:47;;;;;;;;;;;;;;;;;;4950340;29;19930;-84
2023/03/26 15:40:45;;;;;;;;;;;;;;;;;;4943084;29;19930;-84
2023/03/26 15:43:15;;;;;;;;;;;;;;;;;;4889938;29;19927;-85
2023/03/26 15:45:44;;;;;;;;;;;;;;;;;;4930166;29;19942;-85
2023/03/26 15:48:19;;;;;;;;;;;;;;;;;;4947471;28;19922;-84
2023/03/26 15:50:52;;;;;;;;;;;;;;;;;;4933473;29;19927;-84
2023/03/26 15:53:27;;;;;;;;;;;;;;;;;;4942373;29;19929;-85
2023/03/26 15:56:00;;;;;;;;;;;;;;;;;;4949812;29;19930;-85
2023/03/26 15:58:29;;;;;;;;;;;;;;;;;;4943164;29;19923;-84
2023/03/26 16:01:01;;;;;;;;;;;;;;;;;;4947976;29;20381;-85
2023/03/26 16:03:33;;;;;;;;;;;;;;;;;;4938580;29;19926;-85
2023/03/26 16:06:14;;;;;;;;;;;;;;;;;;4927416;29;19926;-85
2023/03/26 16:08:46;;;;;;;;;;;;;;;;;;4943939;29;19929;-84
2023/03/26 16:11:14;;;;;;;;;;;;;;;;;;4933208;29;19922;-84
2023/03/26 16:13:41;;;;;;;;;;;;;;;;;;4945293;29;19923;-85
2023/03/26 16:16:22;;;;;;;;;;;;;;;;;;4945964;29;20396;-85
2023/03/26 16:18:57;;;;;;;;;;;;;;;;;;4943890;29;19927;-84
2023/03/26 16:21:46;;;;;;;;;;;;;;;;;;4942643;29;19938;-85
2023/03/26 16:24:26;;;;;;;;;;;;;;;;;;4940484;29;20304;-84
2023/03/26 16:27:06;;;;;;;;;;;;;;;;;;4950290;29;20285;-85
2023/03/26 16:29:34;;;;;;;;;;;;;;;;;;4928041;29;19929;-85
2023/03/26 16:32:09;;;;;;;;;;;;;;;;;;4946265;29;20301;-85
2023/03/26 16:34:41;;;;;;;;;;;;;;;;;;4942957;29;19923;-85
2023/03/26 16:37:24;;;;;;;;;;;;;;;;;;4946450;29;19922;-86
2023/03/26 16:39:52;;;;;;;;;;;;;;;;;;4948390;29;19926;-84
2023/03/26 16:42:25;;;;;;;;;;;;;;;;;;4966268;23;19926;-94
2023/03/26 16:44:53;;;;;;;;;;;;;;;;;;4955309;28;19934;-89
2023/03/26 16:47:24;;;;;;;;;;;;;;;;;;4952873;28;19926;-89
2023/03/26 16:50:00;;;;;;;;;;;;;;;;;;4936914;29;19922;-89
2023/03/26 16:52:32;;;;;;;;;;;;;;;;;;4961352;28;19921;-89
2023/03/26 16:55:04;;;;;;;;;;;;;;;;;;4953888;28;19923;-89
2023/03/26 16:57:38;;;;;;;;;;;;;;;;;;4939236;28;20389;-89
2023/03/26 17:00:23;;;;;;;;;;;;;;;;;;4957249;28;20389;-85
2023/03/26 17:02:55;;;;;;;;;;;;;;;;;;4943799;28;19931;-87
2023/03/26 17:05:25;;;;;;;;;;;;;;;;;;4941732;28;19930;-87
2023/03/26 17:07:53;;;;;;;;;;;;;;;;;;4940461;28;20394;-87
2023/03/26 17:10:22;;;;;;;;;;;;;;;;;;4947368;28;19930;-88
2023/03/26 17:12:50;;;;;;;;;;;;;;;;;;4954086;28;19926;-88
2023/03/26 17:15:19;;;;;;;;;;;;;;;;;;4952795;28;19922;-87
2023/03/26 17:17:53;;;;;;;;;;;;;;;;;;4950433;28;19933;-87
2023/03/26 17:20:31;;;;;;;;;;;;;;;;;;4952041;28;19933;-87
2023/03/26 17:23:02;;;;;;;;;;;;;;;;;;4939138;29;20312;-87
2023/03/26 17:25:32;;;;;;;;;;;;;;;;;;4951207;28;19929;-87
2023/03/26 17:28:16;;;;;;;;;;;;;;;;;;4953176;28;19938;-87
2023/03/26 17:30:48;;;;;;;;;;;;;;;;;;4949630;28;19922;-87
2023/03/26 17:33:22;;;;;;;;;;;;;;;;;;4948735;28;20307;-87
2023/03/26 17:35:50;;;;;;;;;;;;;;;;;;4946574;28;19930;-87